Time;durP1;ratioP1;P1;durP2;ratioP2;P2;SDS_P1;SDS_P2;PMS_P1;PMS_P2;Temp;Humidity;BMP_temperature;BMP_pressure;BME280_temperature;BME280_humidity;BME280_pressure;Samples;Min_cycle;Max_cycle;Signal;HPM_P1;HPM_P2
2022/07/02 00:01:59;;;;;;;6.63;3.78;;;;;;;12.56;94.18;97021.88;4854135;29;20069;-76
2022/07/02 00:04:28;;;;;;;6.03;3.80;;;;;;;12.49;93.77;97016.06;4853318;29;20510;-76
2022/07/02 00:06:55;;;;;;;4.78;3.88;;;;;;;12.46;93.63;97011.22;4854702;29;20057;-74
2022/07/02 00:09:22;;;;;;;8.98;5.28;;;;;;;12.43;93.32;97014.59;4853554;29;20096;-75
2022/07/02 00:11:50;;;;;;;5.35;3.90;;;;;;;12.40;93.38;97007.00;4854075;29;20050;-75
2022/07/02 00:14:16;;;;;;;5.38;4.32;;;;;;;12.26;92.93;97002.44;4852995;29;20046;-75
2022/07/02 00:16:45;;;;;;;5.65;4.82;;;;;;;12.21;92.66;97008.03;4854070;29;20049;-76
2022/07/02 00:19:13;;;;;;;6.30;5.05;;;;;;;12.22;92.83;97012.38;4853381;29;20774;-77
2022/07/02 00:21:41;;;;;;;5.28;4.10;;;;;;;12.24;92.78;97003.88;4854108;29;20672;-76
2022/07/02 00:24:08;;;;;;;6.25;4.53;;;;;;;12.19;92.95;97006.72;4853406;29;20061;-75
2022/07/02 00:26:38;;;;;;;4.93;3.85;;;;;;;12.17;92.72;97001.59;4853759;29;20049;-77
2022/07/02 00:29:12;;;;;;;7.05;4.45;;;;;;;12.13;92.69;97002.53;4853078;29;20046;-76
2022/07/02 00:31:39;;;;;;;5.90;4.90;;;;;;;12.09;92.50;97005.06;4854177;29;20136;-75
2022/07/02 00:34:06;;;;;;;5.63;4.63;;;;;;;12.07;92.24;97004.59;4852936;29;20132;-76
2022/07/02 00:36:32;;;;;;;5.60;4.05;;;;;;;12.09;92.31;97001.53;4853803;29;20557;-75
2022/07/02 00:39:00;;;;;;;5.32;4.68;;;;;;;12.04;92.60;96993.47;4853348;29;20129;-76
2022/07/02 00:41:28;;;;;;;5.07;4.15;;;;;;;12.06;92.30;97000.25;4853639;29;20050;-76
2022/07/02 00:43:55;;;;;;;5.57;4.25;;;;;;;12.08;93.06;97000.72;4853898;29;20053;-74
2022/07/02 00:46:26;;;;;;;5.25;4.40;;;;;;;12.13;93.53;97003.34;4852687;29;20065;-75
2022/07/02 00:48:54;;;;;;;6.65;4.95;;;;;;;12.10;93.56;97003.94;4853603;29;20140;-75
2022/07/02 00:51:20;;;;;;;4.63;3.90;;;;;;;12.12;93.74;97004.47;4852951;29;20061;-75
2022/07/02 00:53:47;;;;;;;7.10;4.55;;;;;;;12.17;94.46;97004.31;4853789;29;20060;-74
2022/07/02 00:56:14;;;;;;;5.38;4.57;;;;;;;12.18;94.96;97000.47;4853129;29;20053;-77
2022/07/02 00:58:41;;;;;;;5.50;4.57;;;;;;;12.15;94.90;96995.63;4853606;29;20053;-75
2022/07/02 01:01:08;;;;;;;6.50;5.13;;;;;;;12.03;94.54;96998.13;4852963;29;20065;-77
2022/07/02 01:03:36;;;;;;;5.82;5.22;;;;;;;12.11;94.08;96994.66;4853393;29;20061;-74
2022/07/02 01:06:03;;;;;;;6.93;4.60;;;;;;;12.13;94.55;96994.34;4852877;29;20057;-75
2022/07/02 01:11:16;;;;;;;7.30;5.40;;;;;;;12.16;94.98;96991.78;4855434;29;20070;-74
2022/07/02 01:13:43;;;;;;;6.93;5.15;;;;;;;12.19;95.01;96999.34;4856489;29;20050;-75
2022/07/02 01:16:09;;;;;;;10.13;5.00;;;;;;;12.11;93.88;96989.19;4855753;29;20057;-75
2022/07/02 01:18:38;;;;;;;5.07;3.95;;;;;;;12.07;93.66;96988.19;4856435;29;20057;-76
2022/07/02 01:21:04;;;;;;;4.38;3.63;;;;;;;12.08;93.55;96989.81;4856099;29;20060;-76
2022/07/02 01:23:32;;;;;;;6.28;3.70;;;;;;;12.06;93.43;96989.31;4856577;29;20137;-77
2022/07/02 01:25:58;;;;;;;5.40;4.65;;;;;;;12.04;93.19;96982.56;4856529;29;20049;-77
2022/07/02 01:28:25;;;;;;;6.03;4.93;;;;;;;12.05;93.28;96984.16;4855788;29;20061;-76
2022/07/02 01:30:52;;;;;;;5.32;4.60;;;;;;;12.05;93.31;96978.69;4856224;29;20056;-75
2022/07/02 01:33:19;;;;;;;10.48;5.00;;;;;;;12.05;93.08;96984.97;4856073;29;20054;-75
2022/07/02 01:35:46;;;;;;;6.22;4.22;;;;;;;12.04;93.51;96977.91;4856208;29;20050;-75
2022/07/02 01:38:12;;;;;;;6.75;4.68;;;;;;;12.01;93.37;96973.06;4855411;29;20060;-75
2022/07/02 01:40:40;;;;;;;6.80;4.70;;;;;;;11.97;93.23;96977.53;4855814;29;20057;-75
2022/07/02 01:43:06;;;;;;;6.97;4.82;;;;;;;11.97;93.29;96972.88;4855727;29;20049;-76
2022/07/02 01:45:33;;;;;;;6.07;4.82;;;;;;;11.94;92.63;96975.41;4855818;29;20049;-76
2022/07/02 01:47:59;;;;;;;7.30;4.60;;;;;;;11.92;92.58;96980.41;4855962;29;20540;-75
2022/07/02 01:50:26;;;;;;;6.10;5.05;;;;;;;11.90;92.48;96977.16;4856505;29;20057;-78
2022/07/02 01:52:56;;;;;;;7.15;5.28;;;;;;;11.86;92.40;96976.19;4856111;29;20050;-76
2022/07/02 01:55:23;;;;;;;5.47;4.45;;;;;;;11.77;92.41;96979.63;4855367;29;20077;-75
2022/07/02 01:57:51;;;;;;;5.82;4.82;;;;;;;11.76;91.98;96980.75;4855824;29;20064;-77
2022/07/02 02:00:18;;;;;;;5.90;5.10;;;;;;;11.75;92.04;96976.41;4855372;29;20038;-77
2022/07/02 02:02:44;;;;;;;6.45;5.32;;;;;;;11.72;92.63;96977.00;4855896;29;20057;-75
2022/07/02 02:05:10;;;;;;;6.60;5.50;;;;;;;11.54;92.13;96975.28;4854962;29;20060;-75
2022/07/02 02:07:37;;;;;;;7.93;6.22;;;;;;;11.57;92.24;96976.56;4855549;29;20080;-75
2022/07/02 02:10:04;;;;;;;6.93;5.78;;;;;;;11.56;92.19;96972.25;4855348;29;20057;-76
2022/07/02 02:12:31;;;;;;;12.35;5.70;;;;;;;11.57;92.15;96977.38;4855235;29;20057;-76
2022/07/02 02:14:59;;;;;;;6.85;5.60;;;;;;;11.60;92.43;96976.78;4855554;29;20053;-76
2022/07/02 02:17:25;;;;;;;5.75;4.75;;;;;;;11.62;92.80;96977.25;4855191;29;20053;-76
2022/07/02 02:19:51;;;;;;;5.82;4.85;;;;;;;11.62;92.90;96982.72;4855615;29;20049;-75
2022/07/02 02:22:18;;;;;;;6.45;4.93;;;;;;;11.64;92.99;96985.13;4854835;29;20061;-74
2022/07/02 02:24:44;;;;;;;6.20;4.80;;;;;;;11.62;93.11;96988.16;4855276;29;20061;-75
2022/07/02 02:27:11;;;;;;;5.55;4.53;;;;;;;11.62;93.23;96987.38;4855076;29;20423;-76
2022/07/02 02:29:37;;;;;;;8.75;5.03;;;;;;;11.43;92.58;96990.25;4855331;29;20049;-75
2022/07/02 02:32:06;;;;;;;6.28;4.70;;;;;;;11.48;92.97;96992.84;4854937;29;20060;-76
2022/07/02 02:34:32;;;;;;;7.60;5.18;;;;;;;11.41;92.76;96989.75;4855125;29;20053;-75
2022/07/02 02:36:59;;;;;;;6.63;4.82;;;;;;;11.43;92.60;96992.97;4855424;29;20057;-77
2022/07/02 02:39:25;;;;;;;7.47;4.40;;;;;;;11.46;91.85;96995.09;4854410;29;20446;-75
2022/07/02 02:41:52;;;;;;;5.68;4.40;;;;;;;11.46;91.25;96989.66;4855000;29;20544;-76
2022/07/02 02:44:18;;;;;;;5.85;4.55;;;;;;;11.42;91.60;96999.53;4852823;29;20050;-76
2022/07/02 02:46:45;;;;;;;6.43;4.97;;;;;;;11.44;92.41;96986.44;4855053;29;20058;-75
2022/07/02 02:49:13;;;;;;;5.78;4.43;;;;;;;11.45;92.65;96990.75;4854380;29;20053;-75
2022/07/02 02:51:39;;;;;;;8.65;5.45;;;;;;;11.39;92.75;96990.06;4855011;29;20048;-76
2022/07/02 02:54:06;;;;;;;5.85;4.65;;;;;;;11.15;91.47;96993.03;4854515;29;20049;-75
2022/07/02 02:56:32;;;;;;;5.85;4.47;;;;;;;11.22;91.40;96995.34;4854756;29;20057;-75
2022/07/02 02:58:59;;;;;;;6.63;4.38;;;;;;;11.29;91.50;96994.94;4854959;29;20152;-75
2022/07/02 03:01:27;;;;;;;5.13;3.97;;;;;;;11.31;91.87;97000.88;4854283;29;20600;-74
2022/07/02 03:03:53;;;;;;;5.40;4.30;;;;;;;11.35;92.48;96999.16;4854659;29;20050;-75
2022/07/02 03:06:21;;;;;;;6.35;4.78;;;;;;;11.35;93.10;97005.44;4854299;29;20080;-76
2022/07/02 03:08:48;;;;;;;5.10;3.92;;;;;;;11.26;92.44;97011.91;4854313;29;20060;-77
2022/07/02 03:11:14;;;;;;;7.18;4.68;;;;;;;11.24;91.99;97023.13;4854089;29;20386;-77
2022/07/02 03:13:40;;;;;;;7.38;4.95;;;;;;;11.12;91.95;97018.22;4854381;29;20045;-75
2022/07/02 03:16:08;;;;;;;6.97;4.60;;;;;;;11.15;91.54;97023.03;4854234;29;20053;-75
2022/07/02 03:18:34;;;;;;;5.47;4.28;;;;;;;11.23;91.79;97019.59;4854422;29;20081;-75
2022/07/02 03:21:00;;;;;;;5.68;4.47;;;;;;;11.19;91.24;97017.78;4854068;29;20060;-75
2022/07/02 03:23:28;;;;;;;5.53;4.20;;;;;;;11.23;91.55;97035.16;4853906;29;20049;-75
2022/07/02 03:25:55;;;;;;;6.43;4.07;;;;;;;11.19;90.94;97029.50;4854143;29;20053;-76
2022/07/02 03:28:21;;;;;;;8.18;5.32;;;;;;;11.19;91.87;97037.66;4853850;29;20088;-76
2022/07/02 03:30:48;;;;;;;5.95;4.35;;;;;;;11.12;91.41;97045.47;4854224;29;20045;-75
2022/07/02 03:33:14;;;;;;;6.93;4.22;;;;;;;11.02;90.88;97044.88;4853740;29;20498;-75
2022/07/02 03:35:41;;;;;;;6.30;3.85;;;;;;;11.03;90.86;97039.09;4854006;29;20053;-76
2022/07/02 03:38:07;;;;;;;4.82;4.05;;;;;;;11.12;91.56;97042.75;4853804;29;20057;-77
2022/07/02 03:40:35;;;;;;;5.45;4.22;;;;;;;11.07;90.82;97044.75;4853968;29;20054;-77
2022/07/02 03:43:02;;;;;;;5.68;3.95;;;;;;;11.01;90.66;97049.47;4853644;29;20049;-77
2022/07/02 03:45:28;;;;;;;5.28;3.47;;;;;;;11.01;90.85;97045.94;4853818;29;20053;-77
2022/07/02 03:47:55;;;;;;;4.55;3.47;;;;;;;10.97;90.77;97049.31;4854107;29;20049;-75
2022/07/02 03:50:21;;;;;;;5.60;3.10;;;;;;;10.94;91.25;97049.09;4853695;29;20053;-76
2022/07/02 03:52:48;;;;;;;6.88;3.80;;;;;;;10.90;91.09;97048.88;4853963;29;20049;-76
2022/07/02 03:55:14;;;;;;;5.85;3.60;;;;;;;10.83;91.74;97047.69;4853551;29;20056;-75
2022/07/02 03:57:42;;;;;;;5.70;3.58;;;;;;;10.84;92.07;97047.38;4853995;29;20086;-77
2022/07/02 04:00:10;;;;;;;7.32;4.18;;;;;;;10.68;92.65;97051.50;4853916;29;20061;-75
2022/07/02 04:02:37;;;;;;;4.90;3.92;;;;;;;10.76;92.49;97036.38;4853766;29;20152;-75
2022/07/02 04:05:03;;;;;;;23.92;3.85;;;;;;;10.63;92.81;97046.97;4853054;29;20061;-75
2022/07/02 04:07:30;;;;;;;4.88;3.05;;;;;;;10.71;92.83;97046.28;4853845;29;20076;-76
2022/07/02 04:09:56;;;;;;;4.65;3.58;;;;;;;10.80;92.90;97042.81;4850925;29;20421;-76
2022/07/02 04:12:23;;;;;;;10.05;4.03;;;;;;;10.84;93.19;97035.66;4852147;29;20425;-76
2022/07/02 04:14:51;;;;;;;4.45;3.42;;;;;;;10.91;93.48;97036.06;4853829;29;20056;-76
2022/07/02 04:17:17;;;;;;;4.47;3.50;;;;;;;10.95;94.00;97034.34;4853083;29;20502;-75
2022/07/02 04:19:44;;;;;;;12.32;4.15;;;;;;;10.89;93.99;97038.28;4853894;29;20708;-75
2022/07/02 04:22:10;;;;;;;6.13;3.58;;;;;;;10.94;94.02;97041.72;4853302;29;20056;-75
2022/07/02 04:24:37;;;;;;;8.57;3.78;;;;;;;10.90;94.32;97045.34;4853716;29;20053;-75
2022/07/02 04:27:04;;;;;;;6.70;4.40;;;;;;;10.92;94.37;97041.22;4853122;29;20045;-76
2022/07/02 04:29:30;;;;;;;12.52;3.88;;;;;;;10.84;94.80;97049.28;4853964;29;20049;-75
2022/07/02 04:31:58;;;;;;;6.57;3.60;;;;;;;10.89;95.19;97041.03;4853758;29;20363;-75
2022/07/02 04:34:24;;;;;;;8.70;3.92;;;;;;;10.91;95.14;97050.53;4852902;29;20058;-76
2022/07/02 04:36:51;;;;;;;26.02;4.07;;;;;;;10.61;95.26;97045.66;4853547;29;20053;-75
2022/07/02 04:39:18;;;;;;;6.40;3.88;;;;;;;10.86;95.48;97050.63;4852842;29;20068;-75
2022/07/02 04:41:44;;;;;;;42.38;4.82;;;;;;;10.80;96.18;97048.28;4853843;29;20410;-74
2022/07/02 04:44:10;;;;;;;8.43;5.03;;;;;;;10.81;96.29;97044.47;4853418;29;20056;-75
2022/07/02 04:46:37;;;;;;;6.18;4.03;;;;;;;10.91;96.42;97044.22;4856223;29;20049;-75
2022/07/02 04:49:05;;;;;;;5.05;3.97;;;;;;;11.10;96.46;97046.88;4856613;29;20061;-75
2022/07/02 04:51:31;;;;;;;14.93;5.35;;;;;;;11.07;97.07;97042.84;4856887;29;20596;-75
2022/07/02 04:53:58;;;;;;;5.93;4.60;;;;;;;11.27;96.66;97040.78;4856930;29;20058;-77
2022/07/02 04:56:27;;;;;;;7.30;5.57;;;;;;;11.39;96.44;97035.63;4856575;29;20057;-76
2022/07/02 04:58:53;;;;;;;8.80;5.78;;;;;;;11.45;95.99;97034.41;4856814;29;20142;-76
2022/07/02 05:01:20;;;;;;;9.27;6.18;;;;;;;11.48;96.34;97028.31;4856397;29;20071;-75
2022/07/02 05:03:46;;;;;;;7.63;5.53;;;;;;;11.47;96.63;97029.44;4856874;29;20046;-75
2022/07/02 05:06:14;;;;;;;9.10;5.80;;;;;;;11.55;96.21;97036.91;4856189;29;20053;-75
2022/07/02 05:08:41;;;;;;;7.45;5.07;;;;;;;11.60;96.15;97039.50;4856514;29;20057;-79
2022/07/02 05:11:07;;;;;;;7.40;5.57;;;;;;;11.68;96.46;97036.03;4856103;29;20056;-77
2022/07/02 05:13:34;;;;;;;19.42;6.88;;;;;;;11.68;97.05;97036.03;4856707;29;20056;-77
2022/07/02 05:16:00;;;;;;;9.95;6.88;;;;;;;11.72;96.85;97045.22;4856513;29;20064;-76
2022/07/02 05:18:27;;;;;;;16.17;7.18;;;;;;;11.65;96.47;97041.31;4857620;29;20584;-76
2022/07/02 05:20:53;;;;;;;8.95;5.95;;;;;;;11.79;96.33;97041.25;4856449;29;20057;-76
2022/07/02 05:23:21;;;;;;;9.40;6.40;;;;;;;11.88;96.41;97047.63;4856035;29;20053;-76
2022/07/02 05:25:48;;;;;;;12.82;7.13;;;;;;;11.81;96.24;97049.97;4856682;29;20061;-76
2022/07/02 05:28:14;;;;;;;33.67;8.00;;;;;;;11.71;97.12;97045.53;4855780;29;20054;-76
2022/07/02 05:30:41;;;;;;;14.48;8.30;;;;;;;11.65;98.44;97044.84;4857967;29;20437;-80
2022/07/02 05:33:07;;;;;;;9.98;7.35;;;;;;;11.72;98.32;97047.16;4861629;29;20054;-80
2022/07/02 05:35:34;;;;;;;15.60;9.15;;;;;;;11.71;98.66;97046.34;4862721;29;20053;-79
2022/07/02 05:38:00;;;;;;;13.00;9.55;;;;;;;11.74;99.37;97050.34;4861345;29;20057;-79
2022/07/02 05:40:28;;;;;;;12.68;8.68;;;;;;;11.95;98.82;97050.72;4858772;29;20053;-80
2022/07/02 05:42:55;;;;;;;14.43;10.10;;;;;;;12.03;99.49;97052.72;4858503;29;20054;-81
2022/07/02 05:45:21;;;;;;;14.80;9.57;;;;;;;12.23;99.85;97057.69;4857809;29;20068;-76
2022/07/02 05:47:48;;;;;;;14.02;8.60;;;;;;;12.24;99.73;97058.47;4855619;29;20172;-75
2022/07/02 05:50:14;;;;;;;13.52;8.18;;;;;;;12.21;99.83;97053.63;4851724;29;20057;-75
2022/07/02 05:52:41;;;;;;;10.20;7.68;;;;;;;12.07;99.33;97061.91;4850879;29;20045;-77
2022/07/02 05:55:08;;;;;;;10.35;7.78;;;;;;;12.07;99.71;97056.44;4854714;29;20532;-76
2022/07/02 05:57:36;;;;;;;11.18;7.63;;;;;;;12.22;99.82;97058.81;4854521;29;20053;-76
2022/07/02 06:00:04;;;;;;;9.00;7.05;;;;;;;12.27;100.00;97053.22;4854778;29;20584;-77
2022/07/02 06:02:30;;;;;;;9.52;6.82;;;;;;;12.47;99.90;97051.06;4855433;29;20061;-77
2022/07/02 06:04:57;;;;;;;8.80;6.28;;;;;;;12.61;99.70;97051.78;4855602;29;20053;-76
2022/07/02 06:07:42;;;;;;;9.90;7.32;;;;;;;12.63;99.72;97057.72;4855143;29;20058;-75
2022/07/02 06:10:10;;;;;;;11.43;8.30;;;;;;;12.69;98.60;97051.03;4854583;29;20490;-78
2022/07/02 06:12:38;;;;;;;8.00;6.00;;;;;;;12.83;98.61;97058.31;4855222;29;20059;-77
2022/07/02 06:15:05;;;;;;;8.82;5.70;;;;;;;12.90;98.67;97058.69;4854747;29;20712;-76
2022/07/02 06:17:32;;;;;;;6.45;4.82;;;;;;;13.12;97.84;97055.06;4855140;29;20057;-76
2022/07/02 06:19:58;;;;;;;6.53;4.90;;;;;;;13.21;97.67;97064.09;4855179;29;20056;-77
2022/07/02 06:22:26;;;;;;;7.60;5.30;;;;;;;13.14;97.50;97072.75;4854690;29;20060;-76
2022/07/02 06:24:55;;;;;;;7.82;5.07;;;;;;;13.17;97.31;97065.84;4855177;29;20129;-76
2022/07/02 06:27:22;;;;;;;5.57;4.70;;;;;;;12.96;96.91;97068.34;4854679;29;20061;-76
2022/07/02 06:29:49;;;;;;;6.93;4.93;;;;;;;13.09;97.11;97070.16;4855392;29;20057;-78
2022/07/02 06:32:19;;;;;;;7.63;5.47;;;;;;;13.13;97.74;97073.06;4854393;29;20208;-77
2022/07/02 06:34:45;;;;;;;6.88;5.05;;;;;;;13.22;98.21;97072.00;4855135;29;20060;-78
2022/07/02 06:37:12;;;;;;;6.75;5.03;;;;;;;13.11;97.64;97076.13;4854625;29;20058;-76
2022/07/02 06:39:38;;;;;;;6.30;5.10;;;;;;;13.24;97.37;97077.97;4853670;29;20088;-76
2022/07/02 06:42:22;;;;;;;8.68;5.65;;;;;;;13.31;97.76;97074.75;4853953;29;20052;-76
2022/07/02 06:44:51;;;;;;;7.40;5.57;;;;;;;13.23;96.98;97070.88;4853970;29;20049;-76
2022/07/02 06:47:19;;;;;;;9.77;6.45;;;;;;;13.35;96.79;97078.47;4854214;29;20060;-76
2022/07/02 06:49:45;;;;;;;8.75;6.07;;;;;;;13.54;96.84;97079.00;4854532;29;20517;-77
2022/07/02 06:52:12;;;;;;;10.75;7.38;;;;;;;13.65;96.77;97082.22;4854311;29;20058;-76
2022/07/02 06:54:39;;;;;;;9.02;6.57;;;;;;;13.86;96.63;97076.94;4854661;29;20053;-76
2022/07/02 06:57:06;;;;;;;10.48;7.03;;;;;;;13.78;94.82;97077.72;4852802;29;20189;-76
2022/07/02 06:59:33;;;;;;;9.57;6.28;;;;;;;14.01;94.71;97075.66;4856083;29;20052;-76
2022/07/02 07:02:02;;;;;;;13.35;8.50;;;;;;;14.10;95.00;97079.22;4855490;29;20057;-76
2022/07/02 07:04:28;;;;;;;13.27;7.47;;;;;;;13.92;91.84;97091.28;4854892;29;20492;-76
2022/07/02 07:06:55;;;;;;;12.80;7.53;;;;;;;13.98;91.53;97079.03;4854965;29;20057;-76
2022/07/02 07:09:22;;;;;;;12.10;7.68;;;;;;;14.03;91.49;97084.34;4853601;29;20716;-76
2022/07/02 07:11:48;;;;;;;15.82;8.82;;;;;;;13.92;90.50;97077.59;4854390;29;20045;-76
2022/07/02 07:14:15;;;;;;;15.43;8.48;;;;;;;13.99;92.49;97073.25;4854049;29;20859;-77
2022/07/02 07:16:41;;;;;;;14.90;7.95;;;;;;;14.26;92.09;97074.03;4853869;29;20481;-77
2022/07/02 07:19:09;;;;;;;13.48;7.78;;;;;;;14.49;92.21;97077.41;4853199;29;20061;-76
2022/07/02 07:21:38;;;;;;;14.98;8.40;;;;;;;14.40;90.05;97076.59;4853306;29;20053;-77
2022/07/02 07:24:06;;;;;;;12.95;7.72;;;;;;;14.54;89.83;97071.75;4853735;29;20138;-77
2022/07/02 07:26:32;;;;;;;14.98;8.85;;;;;;;14.47;90.06;97065.94;4854318;29;20083;-78
2022/07/02 07:29:00;;;;;;;12.63;8.20;;;;;;;14.54;90.02;97066.28;4854170;29;20677;-76
2022/07/02 07:31:27;;;;;;;14.38;7.68;;;;;;;14.67;89.99;97065.28;4854209;29;20048;-77
2022/07/02 07:33:56;;;;;;;15.30;8.38;;;;;;;14.66;89.16;97066.41;4853801;29;20068;-76
2022/07/02 07:36:26;;;;;;;13.25;7.88;;;;;;;14.75;88.17;97067.19;4853607;29;20129;-76
2022/07/02 07:38:53;;;;;;;13.40;8.13;;;;;;;14.64;88.21;97071.41;4853867;29;20732;-77
2022/07/02 07:41:21;;;;;;;12.45;8.32;;;;;;;14.88;88.31;97077.16;4853671;29;20045;-76
2022/07/02 07:43:51;;;;;;;12.88;7.70;;;;;;;15.00;88.48;97083.88;4853490;29;20100;-76
2022/07/02 07:46:18;;;;;;;10.80;7.30;;;;;;;15.14;87.12;97074.31;4853703;29;20140;-77
2022/07/02 07:48:45;;;;;;;13.50;7.82;;;;;;;15.15;86.14;97080.59;4852482;29;20063;-78
2022/07/02 07:51:11;;;;;;;12.65;7.82;;;;;;;15.37;85.60;97065.78;4852372;29;20064;-78
2022/07/02 07:53:39;;;;;;;11.38;7.40;;;;;;;15.50;86.11;97070.22;4853443;29;20056;-76
2022/07/02 07:56:06;;;;;;;12.30;7.75;;;;;;;15.70;85.41;97068.66;4853375;29;20453;-78
2022/07/02 07:58:34;;;;;;;9.63;7.13;;;;;;;15.72;82.88;97080.16;4853327;29;20045;-78
2022/07/02 08:01:01;;;;;;;9.75;6.65;;;;;;;15.84;81.81;97069.22;4853816;29;20106;-75
2022/07/02 08:03:27;;;;;;;8.45;6.13;;;;;;;15.95;81.21;97068.81;4853389;29;20057;-77
2022/07/02 08:05:54;;;;;;;10.48;7.15;;;;;;;15.77;76.31;97068.97;4853741;29;20049;-75
2022/07/02 08:08:21;;;;;;;10.57;7.05;;;;;;;16.12;79.71;97066.72;4853164;29;20057;-76
2022/07/02 08:10:49;;;;;;;10.15;6.72;;;;;;;16.25;80.71;97067.59;4853358;29;20096;-77
2022/07/02 08:13:16;;;;;;;9.45;7.05;;;;;;;16.38;78.70;97065.69;4853057;29;20064;-76
2022/07/02 08:15:42;;;;;;;11.77;7.45;;;;;;;16.79;79.90;97069.50;4853409;29;20057;-77
2022/07/02 08:18:09;;;;;;;8.70;6.68;;;;;;;17.12;75.55;97066.69;4852928;29;20531;-76
2022/07/02 08:20:35;;;;;;;8.32;5.90;;;;;;;17.62;72.98;97068.28;4854867;29;20053;-75
2022/07/02 08:23:02;;;;;;;7.55;5.70;;;;;;;17.87;70.05;97071.84;4856504;29;20320;-76
2022/07/02 08:25:30;;;;;;;7.13;5.40;;;;;;;17.92;68.96;97061.38;4857098;29;20053;-76
2022/07/02 08:27:58;;;;;;;6.85;5.43;;;;;;;18.14;68.75;97060.03;4857458;29;20052;-75
2022/07/02 08:30:24;;;;;;;6.75;5.00;;;;;;;18.45;67.56;97055.78;4856752;29;20065;-76
2022/07/02 08:32:51;;;;;;;6.72;4.93;;;;;;;18.80;70.97;97055.97;4857202;29;20049;-77
2022/07/02 08:35:18;;;;;;;5.07;3.28;;;;;;;19.09;65.05;97051.97;4856671;29;20106;-76
2022/07/02 08:37:44;;;;;;;4.30;2.63;;;;;;;18.94;59.76;97056.31;4856114;29;20057;-76
2022/07/02 08:40:11;;;;;;;5.10;2.38;;;;;;;18.88;60.22;97048.69;4855458;29;20060;-76
2022/07/02 08:42:42;;;;;;;6.65;2.38;;;;;;;19.19;60.64;97045.13;4858718;29;20089;-76
2022/07/02 08:45:12;;;;;;;3.67;2.10;;;;;;;19.45;62.54;97039.03;4857152;29;20410;-76
2022/07/02 08:47:41;;;;;;;3.88;2.30;;;;;;;19.56;59.05;97032.59;4856968;29;20064;-78
2022/07/02 08:50:10;;;;;;;4.38;2.30;;;;;;;19.67;60.22;97043.09;4856107;29;20525;-76
2022/07/02 08:52:39;;;;;;;5.32;2.10;;;;;;;19.70;61.44;97028.59;4834924;29;20072;-76
2022/07/02 08:55:07;;;;;;;2.45;1.90;;;;;;;19.90;59.31;97029.41;4853127;29;20129;-76
2022/07/02 08:57:34;;;;;;;1.90;1.60;;;;;;;20.05;58.31;97040.41;4857177;29;20061;-77
2022/07/02 09:00:00;;;;;;;4.03;1.77;;;;;;;20.05;55.96;97034.88;4856858;29;20057;-78
2022/07/02 09:02:29;;;;;;;2.33;1.65;;;;;;;20.05;55.13;97032.13;4856379;29;20429;-76
2022/07/02 09:05:01;;;;;;;4.03;1.45;;;;;;;20.17;55.61;97033.94;4856320;29;20394;-79
2022/07/02 09:07:27;;;;;;;3.17;1.70;;;;;;;20.33;54.06;97026.34;4856152;29;20052;-78
2022/07/02 09:09:55;;;;;;;3.35;1.65;;;;;;;20.52;56.44;97027.56;4856376;29;20057;-80
2022/07/02 09:12:23;;;;;;;2.78;1.92;;;;;;;20.54;55.38;97026.00;4856011;29;20062;-80
2022/07/02 09:14:50;;;;;;;3.05;1.92;;;;;;;20.72;57.76;97023.56;4856192;29;20136;-80
2022/07/02 09:17:17;;;;;;;4.13;2.00;;;;;;;20.75;56.80;97019.25;4856374;29;20097;-79
2022/07/02 09:19:45;;;;;;;4.30;1.80;;;;;;;20.66;56.16;97018.69;4856270;29;20137;-78
2022/07/02 09:22:12;;;;;;;3.20;1.70;;;;;;;20.93;57.30;97014.81;4856207;29;20076;-76
2022/07/02 09:24:42;;;;;;;1.90;1.35;;;;;;;21.06;55.52;97007.94;4856137;29;20057;-77
2022/07/02 09:27:10;;;;;;;2.50;1.40;;;;;;;21.19;54.77;97013.28;4855750;29;20148;-77
2022/07/02 09:29:44;;;;;;;3.20;1.80;;;;;;;21.16;52.28;97012.06;4855935;29;20544;-76
2022/07/02 09:32:11;;;;;;;1.88;1.20;;;;;;;21.11;51.91;97018.69;4856142;29;20053;-76
2022/07/02 09:34:42;;;;;;;1.60;1.08;;;;;;;21.30;55.04;96994.91;4855738;29;20049;-79
2022/07/02 09:37:17;;;;;;;1.92;1.08;;;;;;;21.46;53.50;97009.41;4855247;29;20053;-77
2022/07/02 09:39:45;;;;;;;1.92;1.00;;;;;;;21.59;52.88;97001.66;4855510;29;20053;-77
2022/07/02 09:42:12;;;;;;;2.55;1.13;;;;;;;21.57;53.98;97010.34;4855236;29;20057;-77
2022/07/02 09:44:46;;;;;;;2.38;1.08;;;;;;;21.47;51.91;97004.66;4855277;29;20049;-78
2022/07/02 09:47:12;;;;;;;1.02;0.80;;;;;;;21.66;53.08;96996.19;4855498;29;20053;-77
2022/07/02 09:49:47;;;;;;;3.78;0.90;;;;;;;21.71;53.76;96997.84;4855140;29;20076;-75
2022/07/02 09:52:16;;;;;;;1.35;1.02;;;;;;;21.78;54.06;97004.31;4855059;29;20101;-78
2022/07/02 09:54:43;;;;;;;1.33;0.80;;;;;;;21.78;48.68;97003.50;4855321;29;20049;-76
2022/07/02 09:57:11;;;;;;;1.00;0.60;;;;;;;21.84;50.24;96996.47;4854975;29;20089;-77
2022/07/02 09:59:39;;;;;;;1.05;0.75;;;;;;;21.77;47.99;96999.13;4855348;29;20060;-78
2022/07/02 10:02:06;;;;;;;1.27;0.90;;;;;;;21.76;50.03;96997.53;4854931;29;20088;-77
2022/07/02 10:04:34;;;;;;;1.98;0.80;;;;;;;21.81;52.90;96988.88;4855071;29;20053;-78
2022/07/02 10:07:00;;;;;;;2.13;1.27;;;;;;;21.71;49.45;96992.31;4855236;29;20053;-74
2022/07/02 10:09:28;;;;;;;1.83;1.20;;;;;;;21.81;51.29;96991.66;4854902;29;20065;-77
2022/07/02 10:11:55;;;;;;;2.50;0.70;;;;;;;21.99;53.71;96984.38;4855262;29;20073;-77
2022/07/02 10:14:24;;;;;;;2.20;0.70;;;;;;;22.09;53.07;96974.59;4854689;29;20053;-78
2022/07/02 10:16:51;;;;;;;1.52;0.88;;;;;;;22.30;51.32;96980.41;4854359;29;20053;-78
2022/07/02 10:19:18;;;;;;;1.70;0.70;;;;;;;22.35;49.14;96968.19;4854272;29;20053;-79
2022/07/02 10:21:47;;;;;;;1.33;0.50;;;;;;;22.30;49.25;96974.88;4854941;29;20053;-78
2022/07/02 10:24:14;;;;;;;3.83;1.00;;;;;;;22.34;48.06;96963.78;4857325;29;20057;-78
2022/07/02 10:26:42;;;;;;;1.75;0.77;;;;;;;22.20;44.49;96969.19;4857308;29;20053;-77
2022/07/02 10:29:10;;;;;;;1.63;0.63;;;;;;;22.40;48.92;96962.28;4854427;29;20076;-78
2022/07/02 10:31:40;;;;;;;0.93;0.70;;;;;;;22.51;49.47;96956.84;4854830;29;20049;-77
2022/07/02 10:34:26;;;;;;;3.25;0.70;;;;;;;22.71;50.56;96941.56;4853967;29;20057;-77
2022/07/02 10:36:54;;;;;;;1.20;0.63;;;;;;;22.72;45.79;96940.41;4854345;29;20053;-77
2022/07/02 10:39:20;;;;;;;0.77;0.60;;;;;;;22.77;45.29;96942.03;4853903;29;20125;-78
2022/07/02 10:41:48;;;;;;;2.75;0.70;;;;;;;22.82;46.26;96930.56;4853210;29;20056;-77
2022/07/02 10:44:15;;;;;;;1.67;0.60;;;;;;;22.87;46.30;96941.31;4853053;29;20756;-77
2022/07/02 10:46:47;;;;;;;1.75;0.60;;;;;;;22.97;45.41;96932.31;4854769;29;20082;-77
2022/07/02 10:49:25;;;;;;;2.27;0.60;;;;;;;22.81;43.22;96935.31;4853836;29;20439;-79
2022/07/02 10:51:56;;;;;;;1.17;0.60;;;;;;;22.96;45.24;96927.91;4854414;29;20057;-78
2022/07/02 10:54:31;;;;;;;0.50;0.50;;;;;;;23.01;44.78;96933.09;4853632;29;20418;-78
2022/07/02 10:56:59;;;;;;;1.65;0.77;;;;;;;23.08;45.83;96935.97;4854480;29;20053;-79
2022/07/02 10:59:27;;;;;;;3.38;1.23;;;;;;;23.03;46.07;96933.53;4853642;29;20057;-77
2022/07/02 11:02:05;;;;;;;1.13;0.80;;;;;;;23.16;46.14;96934.81;4853586;29;20092;-77
2022/07/02 11:04:31;;;;;;;3.03;0.82;;;;;;;23.19;45.59;96936.03;4853204;29;20068;-77
2022/07/02 11:07:06;;;;;;;1.33;0.57;;;;;;;23.24;40.55;96935.66;4853371;29;20765;-81
2022/07/02 11:09:33;;;;;;;0.70;0.60;;;;;;;23.13;41.85;96932.81;4853486;29;20049;-80
2022/07/02 11:12:01;;;;;;;0.50;0.50;;;;;;;23.30;44.83;96919.44;4854462;29;20430;-79
2022/07/02 11:14:30;;;;;;;1.55;0.70;;;;;;;23.36;43.40;96923.44;4854532;29;20044;-79
2022/07/02 11:16:57;;;;;;;1.10;0.60;;;;;;;23.40;43.66;96919.50;4854539;29;20480;-79
2022/07/02 11:19:25;;;;;;;1.27;0.50;;;;;;;23.18;39.64;96924.13;4854025;29;20053;-78
2022/07/02 11:21:54;;;;;;;0.60;0.40;;;;;;;23.32;38.89;96917.06;4853834;29;20051;-76
2022/07/02 11:24:22;;;;;;;1.90;0.40;;;;;;;23.22;40.45;96912.22;4853294;29;20125;-77
2022/07/02 11:26:49;;;;;;;2.25;0.80;;;;;;;23.26;44.00;96913.03;4854169;29;20065;-77
2022/07/02 11:29:18;;;;;;;2.17;1.13;;;;;;;23.38;45.92;96905.16;4853429;29;20058;-76
2022/07/02 11:31:46;;;;;;;2.83;0.90;;;;;;;23.34;43.02;96906.38;4853602;29;20140;-77
2022/07/02 11:34:15;;;;;;;1.25;0.70;;;;;;;23.36;43.67;96895.63;4853413;29;20125;-76
2022/07/02 11:36:41;;;;;;;3.38;0.63;;;;;;;23.35;41.64;96900.41;4853892;29;20057;-76